Latest Weather Observations for Combienbar

IDV60801

Issued at 3:02 pm EST Monday 25 May 2015 (issued every 30 minutes, with the page automatically refreshed every 10 minutes)

About weather observations | Map of weather stations | Latest weather observations for VIC | Other Formats
Station Details ID: 084143 Name: COMBIENBAR AWS Lat: -37.34 Lon: 149.02 Height: 640.0 m
Data from the previous 72 hours. | See also: Recent months at Combienbar
Date/Time
EST
Temp
°C
App
Temp
°C
Dew
Point
Rel
Hum
%
Delta-T
°C
Wind Press
QNH
hPa
Press
MSL
hPa
Rain
since 9 am
mm
Dir
 
Spd
km/h
Gust
km/h
Spd
kts
Gust
kts
25/03:00pm 9.2 7.8 3.4 67 2.6 CALM 0 0 0 0 1029.2 1029.0 0.0
25/02:30pm 10.2 8.3 0.8 52 4.0 CALM 0 0 0 0 1029.1 1028.9 0.0
25/02:00pm 9.9 8.0 0.5 52 3.9 CALM 0 0 0 0 1029.4 1029.3 0.0
25/01:30pm 10.5 9.1 3.8 63 3.1 CALM 0 0 0 0 1029.6 1029.4 0.0
25/01:00pm 11.2 9.3 0.6 48 4.5 CALM 0 0 0 0 1029.7 1029.5 0.0
25/12:30pm 10.7 9.6 5.0 68 2.7 CALM 0 0 0 0 1029.7 1029.5 0.0
25/12:00pm 11.2 9.5 1.7 52 4.1 CALM 0 0 0 0 1030.2 1030.0 0.0
25/11:30am 10.5 8.9 2.4 57 3.6 CALM 0 4 0 2 1030.4 1030.2 0.0
25/11:00am 9.6 7.6 -0.3 50 4.1 CALM 0 0 0 0 1031.0 1030.9 0.0
25/10:30am 10.5 9.0 3.1 60 3.3 CALM 0 2 0 1 1031.0 1030.9 0.0
25/10:00am 11.4 9.3 -1.0 42 5.1 CALM 0 2 0 1 1030.8 1030.7 0.0
25/09:30am 10.8 8.3 -3.7 36 5.6 CALM 0 2 0 1 1031.0 1030.9 0.0
25/09:00am 8.3 5.7 -5.2 38 4.9 CALM 0 0 0 0 1031.4 1031.2 0.0
25/08:30am 7.7 5.0 -6.4 36 4.9 CALM 0 0 0 0 1031.5 1031.3 0.0
25/08:00am 7.5 4.6 -8.1 32 5.2 CALM 0 0 0 0 1031.0 1030.9 0.0
25/07:30am 7.5 4.4 -10.7 26 5.7 CALM 0 0 0 0 1030.6 1030.4 0.0
25/07:00am 7.3 4.4 -8.3 32 5.1 CALM 0 0 0 0 1030.5 1030.3 0.0
25/06:30am 7.2 4.1 -10.5 27 5.6 CALM 0 0 0 0 1030.5 1030.3 0.0
25/06:00am 7.7 4.5 -12.1 23 6.0 CALM 0 0 0 0 1030.4 1030.2 0.0
25/05:30am 8.3 5.1 -12.7 21 6.4 CALM 0 0 0 0 1030.0 1029.8 0.0
25/05:00am 8.2 5.0 -11.7 23 6.1 CALM 0 0 0 0 1030.0 1029.8 0.0
25/04:30am 8.9 5.7 -12.8 20 6.6 CALM 0 0 0 0 1029.9 1029.7 0.0
25/04:00am 10.3 6.9 -16.0 14 7.5 CALM 0 0 0 0 1029.7 1029.5 0.0
25/03:30am 10.7 7.2 -17.5 12 7.9 CALM 0 0 0 0 1029.6 1029.4 0.0
25/03:00am 10.8 7.3 -17.4 12 7.9 CALM 0 0 0 0 1029.8 1029.6 0.0
25/02:30am 10.2 6.8 -15.2 15 7.5 CALM 0 0 0 0 1030.2 1030.0 0.0
25/02:00am 9.8 6.5 -14.1 17 7.1 CALM 0 0 0 0 1030.2 1030.0 0.0
25/01:30am 10.5 7.1 -15.8 14 7.7 CALM 0 0 0 0 1030.2 1030.0 0.0
25/01:00am 11.6 8.0 -20.2 9 8.5 CALM 0 0 0 0 1030.1 1029.9 0.0
25/12:30am 12.1 8.2 -18.6 10 8.6 W 2 4 1 2 1030.2 1030.0 0.0
25/12:00am 11.8 8.2 -20.0 9 8.6 CALM 0 0 0 0 1030.4 1030.2 0.0
 
Date/Time
EST
Temp
°C
App
Temp
°C
Dew
Point
Rel
Hum
%
Delta-T
°C
Wind Press
QNH
hPa
Press
MSL
hPa
Rain
since 9 am
mm
Dir
 
Spd
km/h
Gust
km/h
Spd
kts
Gust
kts
24/11:30pm 11.3 7.7 -19.2 10 8.4 CALM 0 0 0 0 1030.4 1030.2 0.0
24/11:00pm 11.5 8.0 -17.9 11 8.2 CALM 0 0 0 0 1030.5 1030.3 0.0
24/10:30pm 11.3 7.7 -19.2 10 8.4 CALM 0 0 0 0 1030.7 1030.5 0.0
24/10:00pm 11.4 8.0 -16.0 13 8.0 CALM 0 0 0 0 1031.0 1030.9 0.0
24/09:30pm 11.2 7.7 -17.1 12 8.1 CALM 0 0 0 0 1030.9 1030.8 0.0
24/09:00pm 11.3 8.0 -13.6 16 7.7 CALM 0 0 0 0 1030.8 1030.7 0.0
24/08:30pm 11.1 7.8 -13.0 17 7.6 CALM 0 0 0 0 1030.8 1030.7 0.0
24/08:00pm 11.0 8.0 -9.9 22 7.0 CALM 0 0 0 0 1030.8 1030.7 0.0
24/07:30pm 10.0 7.2 -7.2 29 6.1 CALM 0 0 0 0 1030.9 1030.8 0.0
24/07:00pm 9.7 7.2 -4.3 37 5.2 CALM 0 0 0 0 1030.8 1030.7 0.0
24/06:30pm 9.6 7.3 -2.0 44 4.6 CALM 0 0 0 0 1030.8 1030.7 0.0
24/06:00pm 8.1 6.3 3.6 73 2.0 NE 2 4 1 2 1030.7 1030.5 0.0
24/05:30pm 8.4 7.2 4.6 77 1.7 CALM 0 2 0 1 1030.7 1030.5 0.0
24/05:00pm 9.4 8.1 4.0 69 2.4 CALM 0 0 0 0 1030.5 1030.3 0.0
24/04:30pm 9.5 8.2 4.1 69 2.5 CALM 0 0 0 0 1030.4 1030.2 0.0
24/04:00pm 10.4 8.9 3.0 60 3.3 CALM 0 0 0 0 1030.3 1030.1 0.0
24/03:30pm 11.8 10.7 5.0 63 3.2 CALM 0 0 0 0 1030.3 1030.1 0.0
24/03:00pm 12.9 11.7 4.8 58 3.8 CALM 0 0 0 0 1030.3 1030.1 0.0
24/02:30pm 13.0 12.2 6.4 64 3.3 CALM 0 0 0 0 1030.3 1030.1 0.0
24/02:00pm 12.8 11.7 5.0 59 3.7 CALM 0 2 0 1 1030.3 1030.1 0.0
24/01:30pm 12.0 11.2 6.5 69 2.7 CALM 0 0 0 0 1030.4 1030.2 0.0
24/01:00pm 13.2 11.7 5.1 58 3.9 NNE 2 4 1 2 1030.3 1030.1 0.0
24/12:30pm 12.3 10.8 4.8 60 3.6 NE 2 6 1 3 1030.4 1030.2 0.0
24/12:00pm 11.6 9.9 3.9 59 3.5 NE 2 4 1 2 1030.8 1030.7 0.0
24/11:30am 10.8 8.6 3.6 61 3.3 NNE 4 6 2 3 1031.0 1030.9 0.0
24/11:00am 9.8 7.9 3.1 63 3.0 NE 2 6 1 3 1031.3 1031.1 0.0
24/10:30am 9.0 7.4 2.6 64 2.8 CALM 0 4 0 2 1031.5 1031.3 0.0
24/10:00am 8.7 7.0 4.1 73 2.1 NE 2 4 1 2 1031.4 1031.2 0.0
24/09:30am 7.2 5.6 4.3 82 1.3 NE 2 2 1 1 1031.5 1031.3 0.0
24/09:00am 6.6 5.4 4.6 87 0.9 CALM 0 2 0 1 1031.4 1031.2 0.2
24/08:30am 4.3 2.8 3.1 92 0.5 CALM 0 0 0 0 1031.4 1031.2 0.0
24/08:00am 4.1 2.7 3.4 95 0.3 CALM 0 0 0 0 1031.2 1031.0 0.0
24/07:30am 3.3 1.7 2.6 95 0.3 CALM 0 0 0 0 1030.9 1030.8 0.0
24/07:00am 2.7 1.0 2.0 95 0.3 CALM 0 0 0 0 1030.7 1030.5 0.0
24/06:30am 2.9 1.2 2.0 94 0.4 CALM 0 0 0 0 1030.7 1030.5 0.0
24/06:00am 3.0 1.3 2.1 94 0.4 CALM 0 0 0 0 1030.4 1030.2 0.0
24/05:30am 3.4 1.8 2.5 94 0.4 CALM 0 0 0 0 1030.3 1030.1 0.0
24/05:00am 3.4 1.8 2.5 94 0.4 CALM 0 0 0 0 1030.1 1029.9 0.0
24/04:30am 3.3 1.7 2.4 94 0.4 CALM 0 0 0 0 1030.0 1029.8 0.0
24/04:00am 3.4 1.8 2.5 94 0.4 CALM 0 0 0 0 1030.0 1029.8 0.0
24/03:30am 3.4 1.8 2.7 95 0.3 CALM 0 0 0 0 1030.0 1029.8 0.0
24/03:00am 3.3 1.7 2.6 95 0.3 CALM 0 0 0 0 1030.1 1029.9 0.0
24/02:30am 3.5 2.0 2.8 95 0.3 CALM 0 0 0 0 1030.1 1029.9 0.0
24/02:00am 3.5 2.0 2.8 95 0.3 CALM 0 0 0 0 1029.9 1029.7 0.0
24/01:30am 3.5 2.0 2.8 95 0.3 CALM 0 0 0 0 1030.0 1029.8 0.0
24/01:00am 3.7 2.2 2.8 94 0.4 CALM 0 0 0 0 1030.0 1029.8 0.0
24/12:30am 4.1 2.7 3.4 95 0.3 CALM 0 0 0 0 1030.2 1030.0 0.0
24/12:00am 4.7 3.4 4.1 96 0.3 CALM 0 0 0 0 1030.4 1030.2 0.0
 
Date/Time
EST
Temp
°C
App
Temp
°C
Dew
Point
Rel
Hum
%
Delta-T
°C
Wind Press
QNH
hPa
Press
MSL
hPa
Rain
since 9 am
mm
Dir
 
Spd
km/h
Gust
km/h
Spd
kts
Gust
kts
23/11:30pm 4.9 3.6 4.3 96 0.3 CALM 0 0 0 0 1030.3 1030.1 0.0
23/11:00pm 4.7 3.4 4.3 97 0.2 CALM 0 0 0 0 1030.4 1030.2 0.0
23/10:30pm 4.5 3.2 4.1 97 0.2 CALM 0 2 0 1 1030.4 1030.2 0.0
23/10:00pm 4.4 3.0 3.8 96 0.3 CALM 0 0 0 0 1030.4 1030.2 0.0
23/09:30pm 4.7 3.4 4.1 96 0.3 CALM 0 0 0 0 1030.4 1030.2 0.0
23/09:00pm 4.6 3.3 4.0 96 0.3 CALM 0 0 0 0 1030.2 1030.0 0.0
23/08:30pm 4.4 3.0 3.8 96 0.3 CALM 0 0 0 0 1030.1 1029.9 0.0
23/08:00pm 4.4 3.0 3.8 96 0.3 CALM 0 0 0 0 1029.9 1029.7 0.0
23/07:30pm 4.3 2.9 3.7 96 0.3 CALM 0 0 0 0 1029.9 1029.7 0.0
23/07:00pm 4.1 2.7 3.4 95 0.3 CALM 0 0 0 0 1029.8 1029.6 0.0
23/06:30pm 4.0 2.5 3.1 94 0.4 CALM 0 0 0 0 1029.8 1029.6 0.0
23/06:00pm 4.5 3.1 3.6 94 0.4 CALM 0 0 0 0 1029.8 1029.6 0.0
23/05:30pm 4.9 3.6 3.9 93 0.4 CALM 0 0 0 0 1029.6 1029.4 0.0
23/05:00pm 5.0 3.6 3.5 90 0.6 CALM 0 0 0 0 1029.6 1029.4 0.0
23/04:30pm 5.9 4.6 4.1 88 0.8 CALM 0 0 0 0 1029.7 1029.5 0.0
23/04:00pm 6.6 5.3 4.1 84 1.1 CALM 0 0 0 0 1029.6 1029.4 0.0
23/03:30pm 7.8 6.6 4.4 79 1.5 CALM 0 0 0 0 1029.3 1029.1 0.0
23/03:00pm 8.1 6.9 4.5 78 1.6 CALM 0 0 0 0 1029.1 1028.9 0.0
23/02:30pm 8.0 6.8 4.4 78 1.6 CALM 0 0 0 0 1028.9 1028.7 0.0
23/02:00pm 8.0 6.7 4.2 77 1.7 CALM 0 0 0 0 1029.0 1028.8 0.0
23/01:30pm 8.2 7.0 4.4 77 1.7 CALM 0 0 0 0 1029.0 1028.8 0.0
23/01:00pm 8.0 6.8 4.8 80 1.5 CALM 0 0 0 0 1029.2 1029.0 0.0
23/12:30pm 7.8 6.5 4.2 78 1.6 CALM 0 2 0 1 1029.4 1029.3 0.0
23/12:00pm 7.6 6.3 4.0 78 1.6 CALM 0 0 0 0 1029.9 1029.7 0.0
23/11:30am 7.1 5.8 4.1 81 1.3 CALM 0 0 0 0 1030.2 1030.0 0.0
23/11:00am 6.6 5.3 4.1 84 1.1 CALM 0 0 0 0 1030.5 1030.3 0.0
23/10:30am 6.1 4.7 3.8 85 1.0 CALM 0 0 0 0 1030.6 1030.4 0.0
23/10:00am 6.6 5.2 3.6 81 1.3 CALM 0 2 0 1 1030.5 1030.3 0.0
23/09:30am 5.5 4.0 3.2 85 1.0 CALM 0 2 0 1 1030.4 1030.2 0.0
23/09:00am 4.6 3.1 3.1 90 0.6 CALM 0 0 0 0 1030.4 1030.2 1.8
23/08:30am 3.7 2.1 2.2 90 0.6 CALM 0 0 0 0 1030.3 1030.1 1.8
23/08:00am 3.5 1.9 2.5 93 0.4 CALM 0 2 0 1 1030.1 1029.9 1.8
23/07:30am 2.7 1.0 1.8 94 0.4 CALM 0 2 0 1 1030.0 1029.8 1.8
23/07:00am 2.7 1.0 1.8 94 0.4 CALM 0 2 0 1 1029.8 1029.6 1.8
23/06:30am 2.5 0.8 1.6 94 0.4 CALM 0 4 0 2 1029.4 1029.3 1.8
23/06:00am 2.7 1.0 1.8 94 0.4 CALM 0 2 0 1 1029.2 1029.0 1.8
23/05:30am 2.9 1.3 2.2 95 0.3 CALM 0 0 0 0 1029.2 1029.0 1.8
23/05:00am 3.3 1.7 2.6 95 0.3 CALM 0 4 0 2 1029.0 1028.8 1.8
23/04:30am 3.6 2.1 2.9 95 0.3 CALM 0 0 0 0 1028.8 1028.6 1.8
23/04:00am 4.1 2.7 3.5 96 0.3 CALM 0 2 0 1 1028.7 1028.5 1.8
23/03:30am 4.7 3.0 4.0 95 0.3 SSW 2 4 1 2 1028.6 1028.4 1.8
23/03:00am 5.1 3.9 4.4 95 0.3 CALM 0 2 0 1 1028.6 1028.4 1.8
23/02:30am 5.3 3.7 4.4 94 0.4 SSW 2 4 1 2 1028.6 1028.4 1.8
23/02:00am 5.6 4.0 4.7 94 0.4 SW 2 7 1 4 1028.8 1028.6 1.8
23/01:30am 5.8 4.3 4.9 94 0.4 SW 2 4 1 2 1028.7 1028.5 1.8
23/01:00am 5.9 4.0 5.0 94 0.4 SW 4 11 2 6 1028.8 1028.6 1.8
23/12:30am 5.9 4.0 5.0 94 0.4 SW 4 11 2 6 1028.8 1028.6 1.8
23/12:00am 5.7 3.8 4.7 93 0.4 SW 4 7 2 4 1029.0 1028.8 1.8
 
Date/Time
EST
Temp
°C
App
Temp
°C
Dew
Point
Rel
Hum
%
Delta-T
°C
Wind Press
QNH
hPa
Press
MSL
hPa
Rain
since 9 am
mm
Dir
 
Spd
km/h
Gust
km/h
Spd
kts
Gust
kts
22/11:30pm 6.2 3.9 4.8 91 0.6 SSW 6 13 3 7 1029.0 1028.8 1.8
22/11:00pm 6.6 4.3 4.8 88 0.8 SW 6 13 3 7 1028.9 1028.7 1.8
22/10:30pm 6.4 4.4 4.6 88 0.8 SSW 4 11 2 6 1028.8 1028.6 1.8
22/10:00pm 6.4 4.4 4.2 86 1.0 SW 4 6 2 3 1028.8 1028.6 1.8
22/09:30pm 6.5 4.5 4.3 86 1.0 SW 4 13 2 7 1028.9 1028.7 1.8
22/09:00pm 6.5 4.0 4.0 84 1.1 SW 6 11 3 6 1028.9 1028.7 1.8
22/08:30pm 6.4 4.4 4.2 86 1.0 SW 4 9 2 5 1028.9 1028.7 1.8
22/08:00pm 6.4 4.0 4.2 86 1.0 SW 6 9 3 5 1028.8 1028.6 1.8
22/07:30pm 6.4 4.4 4.2 86 1.0 SW 4 7 2 4 1028.7 1028.5 1.8
22/07:00pm 6.3 3.9 4.3 87 0.9 SW 6 9 3 5 1028.7 1028.5 1.8
22/06:30pm 6.0 3.6 4.5 90 0.7 SW 6 13 3 7 1028.5 1028.3 1.8
22/06:00pm 6.0 4.1 4.8 92 0.5 SW 4 11 2 6 1028.3 1028.1 1.8
22/05:30pm 6.2 4.4 5.5 95 0.3 SW 4 7 2 4 1028.1 1027.8 1.8
22/05:00pm 6.5 4.8 5.9 96 0.3 SW 4 7 2 4 1028.0 1027.7 1.8
22/04:30pm 6.9 5.3 6.5 97 0.2 SSW 4 7 2 4 1027.7 1027.5 1.8
22/04:00pm 6.9 5.3 6.5 97 0.2 SW 4 9 2 5 1027.5 1027.3 1.8
22/03:30pm 6.9 5.0 6.5 97 0.2 SW 6 9 3 5 1027.3 1027.1 1.8

Other Formats:

Comma delimited format used in spreadsheet applications
http://www.bom.gov.au/fwo/IDV60801/IDV60801.94914.axf

JavaScript Object Notation format (JSON) in row-major order
http://www.bom.gov.au/fwo/IDV60801/IDV60801.94914.json